sensor_id;sensor_type;location;lat;lon;timestamp;temperature;humidity
23544;DHT22;11950;51.230;4.012;2022-10-31T00:00:00;13.70;99.90
23544;DHT22;11950;51.230;4.012;2022-10-31T00:02:27;13.70;99.90
23544;DHT22;11950;51.230;4.012;2022-10-31T00:04:53;13.40;99.90
23544;DHT22;11950;51.230;4.012;2022-10-31T00:07:19;13.40;99.90
23544;DHT22;11950;51.230;4.012;2022-10-31T00:09:45;13.50;99.90
23544;DHT22;11950;51.230;4.012;2022-10-31T00:12:11;13.60;99.90
23544;DHT22;11950;51.230;4.012;2022-10-31T00:14:38;13.50;99.90
23544;DHT22;11950;51.230;4.012;2022-10-31T00:17:04;13.40;99.90
23544;DHT22;11950;51.230;4.012;2022-10-31T00:19:30;13.40;99.90
23544;DHT22;11950;51.230;4.012;2022-10-31T00:21:56;13.20;99.90
23544;DHT22;11950;51.230;4.012;2022-10-31T00:24:23;13.20;99.90
23544;DHT22;11950;51.230;4.012;2022-10-31T00:26:49;13.20;99.90
23544;DHT22;11950;51.230;4.012;2022-10-31T00:29:15;13.00;99.90
23544;DHT22;11950;51.230;4.012;2022-10-31T00:31:41;13.10;99.90
23544;DHT22;11950;51.230;4.012;2022-10-31T00:34:07;13.00;99.90
23544;DHT22;11950;51.230;4.012;2022-10-31T00:36:35;13.00;99.90
23544;DHT22;11950;51.230;4.012;2022-10-31T00:39:02;12.90;99.90
23544;DHT22;11950;51.230;4.012;2022-10-31T00:41:28;12.90;99.90
23544;DHT22;11950;51.230;4.012;2022-10-31T00:43:55;13.00;99.90
23544;DHT22;11950;51.230;4.012;2022-10-31T00:46:22;12.80;99.90
23544;DHT22;11950;51.230;4.012;2022-10-31T00:48:50;12.80;99.90
23544;DHT22;11950;51.230;4.012;2022-10-31T00:51:16;13.10;99.90
23544;DHT22;11950;51.230;4.012;2022-10-31T00:53:42;12.80;99.90
23544;DHT22;11950;51.230;4.012;2022-10-31T00:56:09;12.70;99.90
23544;DHT22;11950;51.230;4.012;2022-10-31T00:58:35;12.70;99.90
23544;DHT22;11950;51.230;4.012;2022-10-31T01:01:02;12.50;99.90
23544;DHT22;11950;51.230;4.012;2022-10-31T01:03:31;12.70;99.90
23544;DHT22;11950;51.230;4.012;2022-10-31T01:06:04;12.60;99.90
23544;DHT22;11950;51.230;4.012;2022-10-31T01:08:33;12.70;99.90
23544;DHT22;11950;51.230;4.012;2022-10-31T01:13:26;12.50;99.90
23544;DHT22;11950;51.230;4.012;2022-10-31T01:15:57;12.30;99.90
23544;DHT22;11950;51.230;4.012;2022-10-31T01:18:26;12.20;99.90
23544;DHT22;11950;51.230;4.012;2022-10-31T01:21:00;12.30;99.90
23544;DHT22;11950;51.230;4.012;2022-10-31T01:23:27;12.20;99.90
23544;DHT22;11950;51.230;4.012;2022-10-31T01:26:17;12.10;99.90
23544;DHT22;11950;51.230;4.012;2022-10-31T01:28:50;12.40;99.90
23544;DHT22;11950;51.230;4.012;2022-10-31T01:31:18;12.30;99.90
23544;DHT22;11950;51.230;4.012;2022-10-31T01:33:45;12.10;99.90
23544;DHT22;11950;51.230;4.012;2022-10-31T01:36:13;12.20;99.90
23544;DHT22;11950;51.230;4.012;2022-10-31T01:38:39;12.30;99.90
23544;DHT22;11950;51.230;4.012;2022-10-31T01:41:06;12.40;99.90
23544;DHT22;11950;51.230;4.012;2022-10-31T01:43:50;11.90;99.90
23544;DHT22;11950;51.230;4.012;2022-10-31T01:46:32;12.20;99.90
23544;DHT22;11950;51.230;4.012;2022-10-31T01:49:01;12.00;99.90
23544;DHT22;11950;51.230;4.012;2022-10-31T01:51:33;12.00;99.90
23544;DHT22;11950;51.230;4.012;2022-10-31T01:54:06;12.10;99.90
23544;DHT22;11950;51.230;4.012;2022-10-31T01:56:37;11.80;99.90
23544;DHT22;11950;51.230;4.012;2022-10-31T01:59:06;12.10;99.90
23544;DHT22;11950;51.230;4.012;2022-10-31T02:01:33;11.80;99.90
23544;DHT22;11950;51.230;4.012;2022-10-31T02:03:59;11.90;99.90
23544;DHT22;11950;51.230;4.012;2022-10-31T02:06:48;11.80;99.90
23544;DHT22;11950;51.230;4.012;2022-10-31T02:09:17;11.80;99.90
23544;DHT22;11950;51.230;4.012;2022-10-31T02:11:54;11.80;99.90
23544;DHT22;11950;51.230;4.012;2022-10-31T02:14:22;11.80;99.90
23544;DHT22;11950;51.230;4.012;2022-10-31T02:16:51;11.60;99.90
23544;DHT22;11950;51.230;4.012;2022-10-31T02:19:31;11.90;99.90
23544;DHT22;11950;51.230;4.012;2022-10-31T02:24:44;11.80;99.90
23544;DHT22;11950;51.230;4.012;2022-10-31T02:27:21;12.00;99.90
23544;DHT22;11950;51.230;4.012;2022-10-31T02:30:03;11.60;99.90
23544;DHT22;11950;51.230;4.012;2022-10-31T02:32:52;11.90;99.90
23544;DHT22;11950;51.230;4.012;2022-10-31T02:38:18;11.90;99.90
23544;DHT22;11950;51.230;4.012;2022-10-31T02:46:57;11.90;99.90
23544;DHT22;11950;51.230;4.012;2022-10-31T02:51:54;11.90;99.90
23544;DHT22;11950;51.230;4.012;2022-10-31T02:54:23;11.80;99.90
23544;DHT22;11950;51.230;4.012;2022-10-31T02:57:02;12.00;99.90
23544;DHT22;11950;51.230;4.012;2022-10-31T02:59:31;11.70;99.90
23544;DHT22;11950;51.230;4.012;2022-10-31T03:10:05;11.50;99.90
23544;DHT22;11950;51.230;4.012;2022-10-31T03:12:43;11.70;99.90
23544;DHT22;11950;51.230;4.012;2022-10-31T03:20:50;11.70;99.90
23544;DHT22;11950;51.230;4.012;2022-10-31T03:23:19;11.80;99.90
23544;DHT22;11950;51.230;4.012;2022-10-31T03:25:50;12.00;99.90
23544;DHT22;11950;51.230;4.012;2022-10-31T03:28:22;11.80;99.90
23544;DHT22;11950;51.230;4.012;2022-10-31T03:30:51;11.50;99.90
23544;DHT22;11950;51.230;4.012;2022-10-31T03:33:23;11.80;99.90
23544;DHT22;11950;51.230;4.012;2022-10-31T03:35:53;11.60;99.90
23544;DHT22;11950;51.230;4.012;2022-10-31T03:38:22;11.60;99.90
23544;DHT22;11950;51.230;4.012;2022-10-31T03:40:51;11.60;99.90
23544;DHT22;11950;51.230;4.012;2022-10-31T03:43:26;11.70;99.90
23544;DHT22;11950;51.230;4.012;2022-10-31T03:45:54;11.50;99.90
23544;DHT22;11950;51.230;4.012;2022-10-31T03:48:22;11.60;99.90
23544;DHT22;11950;51.230;4.012;2022-10-31T03:51:13;11.60;99.90
23544;DHT22;11950;51.230;4.012;2022-10-31T03:56:26;11.30;99.90
23544;DHT22;11950;51.230;4.012;2022-10-31T03:59:17;11.60;99.90
23544;DHT22;11950;51.230;4.012;2022-10-31T04:01:51;11.60;99.90
23544;DHT22;11950;51.230;4.012;2022-10-31T04:04:19;11.40;99.90
23544;DHT22;11950;51.230;4.012;2022-10-31T04:06:49;11.50;99.90
23544;DHT22;11950;51.230;4.012;2022-10-31T04:09:17;11.60;99.90
23544;DHT22;11950;51.230;4.012;2022-10-31T04:11:48;11.60;99.90
23544;DHT22;11950;51.230;4.012;2022-10-31T04:14:38;11.60;99.90
23544;DHT22;11950;51.230;4.012;2022-10-31T04:17:09;11.50;99.90
23544;DHT22;11950;51.230;4.012;2022-10-31T04:19:39;11.60;99.90
23544;DHT22;11950;51.230;4.012;2022-10-31T04:22:05;11.70;99.90
23544;DHT22;11950;51.230;4.012;2022-10-31T04:24:32;11.60;99.90
23544;DHT22;11950;51.230;4.012;2022-10-31T04:26:58;11.50;99.90
23544;DHT22;11950;51.230;4.012;2022-10-31T04:29:25;11.50;99.90
23544;DHT22;11950;51.230;4.012;2022-10-31T04:31:51;11.60;99.90
23544;DHT22;11950;51.230;4.012;2022-10-31T04:34:17;11.40;99.90
23544;DHT22;11950;51.230;4.012;2022-10-31T04:36:44;11.50;99.90
23544;DHT22;11950;51.230;4.012;2022-10-31T04:39:14;11.40;99.90
23544;DHT22;11950;51.230;4.012;2022-10-31T04:41:47;11.50;99.90
23544;DHT22;11950;51.230;4.012;2022-10-31T04:44:14;11.30;99.90
23544;DHT22;11950;51.230;4.012;2022-10-31T04:46:41;11.40;99.90
23544;DHT22;11950;51.230;4.012;2022-10-31T04:49:08;11.50;99.90
23544;DHT22;11950;51.230;4.012;2022-10-31T04:51:36;11.30;99.90
23544;DHT22;11950;51.230;4.012;2022-10-31T04:54:02;11.40;99.90
23544;DHT22;11950;51.230;4.012;2022-10-31T04:56:47;11.40;99.90
23544;DHT22;11950;51.230;4.012;2022-10-31T04:59:19;11.40;99.90
23544;DHT22;11950;51.230;4.012;2022-10-31T05:01:50;11.30;99.90
23544;DHT22;11950;51.230;4.012;2022-10-31T05:04:21;11.40;99.90
23544;DHT22;11950;51.230;4.012;2022-10-31T05:06:48;11.30;99.90
23544;DHT22;11950;51.230;4.012;2022-10-31T05:09:14;11.20;99.90
23544;DHT22;11950;51.230;4.012;2022-10-31T05:11:40;11.50;99.90
23544;DHT22;11950;51.230;4.012;2022-10-31T05:14:38;11.20;99.90
23544;DHT22;11950;51.230;4.012;2022-10-31T05:17:22;11.20;99.90
23544;DHT22;11950;51.230;4.012;2022-10-31T05:20:20;11.20;99.90
23544;DHT22;11950;51.230;4.012;2022-10-31T05:23:04;11.20;99.90
23544;DHT22;11950;51.230;4.012;2022-10-31T05:25:30;11.30;99.90
23544;DHT22;11950;51.230;4.012;2022-10-31T05:27:57;11.10;99.90
23544;DHT22;11950;51.230;4.012;2022-10-31T05:30:29;11.10;99.90
23544;DHT22;11950;51.230;4.012;2022-10-31T05:32:57;11.00;99.90
23544;DHT22;11950;51.230;4.012;2022-10-31T05:35:43;11.10;99.90
23544;DHT22;11950;51.230;4.012;2022-10-31T05:38:26;11.20;99.90
23544;DHT22;11950;51.230;4.012;2022-10-31T05:40:55;11.00;99.90
23544;DHT22;11950;51.230;4.012;2022-10-31T05:43:26;11.00;99.90
23544;DHT22;11950;51.230;4.012;2022-10-31T05:45:55;11.10;99.90
23544;DHT22;11950;51.230;4.012;2022-10-31T05:48:40;11.30;99.90
23544;DHT22;11950;51.230;4.012;2022-10-31T05:51:25;11.00;99.90
23544;DHT22;11950;51.230;4.012;2022-10-31T05:53:51;11.00;99.90
23544;DHT22;11950;51.230;4.012;2022-10-31T05:56:18;10.90;99.90
23544;DHT22;11950;51.230;4.012;2022-10-31T05:58:44;11.00;99.90
23544;DHT22;11950;51.230;4.012;2022-10-31T06:01:10;10.90;99.90
23544;DHT22;11950;51.230;4.012;2022-10-31T06:03:37;10.80;99.90
23544;DHT22;11950;51.230;4.012;2022-10-31T06:06:06;10.80;99.90
23544;DHT22;11950;51.230;4.012;2022-10-31T06:08:36;10.90;99.90
23544;DHT22;11950;51.230;4.012;2022-10-31T06:11:06;10.70;99.90
23544;DHT22;11950;51.230;4.012;2022-10-31T06:13:56;10.90;99.90
23544;DHT22;11950;51.230;4.012;2022-10-31T06:16:27;10.20;99.90
23544;DHT22;11950;51.230;4.012;2022-10-31T06:18:56;10.90;99.90
23544;DHT22;11950;51.230;4.012;2022-10-31T06:21:23;10.90;99.90
23544;DHT22;11950;51.230;4.012;2022-10-31T06:23:51;10.90;99.90
23544;DHT22;11950;51.230;4.012;2022-10-31T06:26:49;11.40;99.90
23544;DHT22;11950;51.230;4.012;2022-10-31T06:29:15;10.90;99.90
23544;DHT22;11950;51.230;4.012;2022-10-31T06:31:57;11.00;99.90
23544;DHT22;11950;51.230;4.012;2022-10-31T06:34:23;11.10;99.90
23544;DHT22;11950;51.230;4.012;2022-10-31T06:36:49;11.20;99.90
23544;DHT22;11950;51.230;4.012;2022-10-31T06:39:18;11.40;99.90
23544;DHT22;11950;51.230;4.012;2022-10-31T06:41:47;11.40;99.90
23544;DHT22;11950;51.230;4.012;2022-10-31T06:44:15;11.50;99.90
23544;DHT22;11950;51.230;4.012;2022-10-31T06:47:05;11.70;99.90
23544;DHT22;11950;51.230;4.012;2022-10-31T06:49:38;11.70;99.90
23544;DHT22;11950;51.230;4.012;2022-10-31T06:52:11;11.70;99.90
23544;DHT22;11950;51.230;4.012;2022-10-31T06:54:37;11.70;99.90
23544;DHT22;11950;51.230;4.012;2022-10-31T06:57:04;11.80;99.90
23544;DHT22;11950;51.230;4.012;2022-10-31T06:59:31;11.90;99.90
23544;DHT22;11950;51.230;4.012;2022-10-31T07:02:00;12.00;99.90
23544;DHT22;11950;51.230;4.012;2022-10-31T07:04:27;11.80;99.90
23544;DHT22;11950;51.230;4.012;2022-10-31T07:06:53;11.80;99.90
23544;DHT22;11950;51.230;4.012;2022-10-31T07:09:19;12.00;99.90
23544;DHT22;11950;51.230;4.012;2022-10-31T07:11:46;11.80;99.90
23544;DHT22;11950;51.230;4.012;2022-10-31T07:14:13;11.80;99.90
23544;DHT22;11950;51.230;4.012;2022-10-31T07:16:39;12.00;99.90
23544;DHT22;11950;51.230;4.012;2022-10-31T07:19:06;12.00;99.90
23544;DHT22;11950;51.230;4.012;2022-10-31T07:21:33;12.10;99.90
23544;DHT22;11950;51.230;4.012;2022-10-31T07:24:01;11.90;99.90
23544;DHT22;11950;51.230;4.012;2022-10-31T07:26:42;11.90;99.90
23544;DHT22;11950;51.230;4.012;2022-10-31T07:29:10;12.00;99.90
23544;DHT22;11950;51.230;4.012;2022-10-31T07:31:37;12.10;99.90
23544;DHT22;11950;51.230;4.012;2022-10-31T07:34:10;12.10;99.90
23544;DHT22;11950;51.230;4.012;2022-10-31T07:37:08;12.20;99.90
23544;DHT22;11950;51.230;4.012;2022-10-31T07:39:35;12.10;99.90
23544;DHT22;11950;51.230;4.012;2022-10-31T07:42:02;12.00;99.90
23544;DHT22;11950;51.230;4.012;2022-10-31T07:44:29;12.20;99.90
23544;DHT22;11950;51.230;4.012;2022-10-31T07:47:13;12.30;99.90
23544;DHT22;11950;51.230;4.012;2022-10-31T07:50:10;12.30;99.90
23544;DHT22;11950;51.230;4.012;2022-10-31T07:53:10;12.40;99.90
23544;DHT22;11950;51.230;4.012;2022-10-31T07:56:03;12.50;99.90
23544;DHT22;11950;51.230;4.012;2022-10-31T07:58:30;12.40;99.90
23544;DHT22;11950;51.230;4.012;2022-10-31T08:00:58;12.50;99.90
23544;DHT22;11950;51.230;4.012;2022-10-31T08:03:33;12.50;99.90
23544;DHT22;11950;51.230;4.012;2022-10-31T08:06:18;12.70;99.90
23544;DHT22;11950;51.230;4.012;2022-10-31T08:09:06;12.70;99.90
23544;DHT22;11950;51.230;4.012;2022-10-31T08:11:34;12.80;99.90
23544;DHT22;11950;51.230;4.012;2022-10-31T08:14:01;12.80;99.90
23544;DHT22;11950;51.230;4.012;2022-10-31T08:16:27;12.90;99.90
23544;DHT22;11950;51.230;4.012;2022-10-31T08:18:59;13.00;99.90
23544;DHT22;11950;51.230;4.012;2022-10-31T08:21:25;13.00;99.90
23544;DHT22;11950;51.230;4.012;2022-10-31T08:23:51;13.00;99.90
23544;DHT22;11950;51.230;4.012;2022-10-31T08:26:20;13.00;99.90
23544;DHT22;11950;51.230;4.012;2022-10-31T08:28:49;13.10;99.90
23544;DHT22;11950;51.230;4.012;2022-10-31T08:31:16;13.10;99.90
23544;DHT22;11950;51.230;4.012;2022-10-31T08:33:43;13.20;99.90
23544;DHT22;11950;51.230;4.012;2022-10-31T08:36:18;13.40;99.90
23544;DHT22;11950;51.230;4.012;2022-10-31T08:39:17;13.40;99.90
23544;DHT22;11950;51.230;4.012;2022-10-31T08:41:44;13.20;99.90
23544;DHT22;11950;51.230;4.012;2022-10-31T08:44:12;13.30;99.90
23544;DHT22;11950;51.230;4.012;2022-10-31T08:46:38;13.50;99.90
23544;DHT22;11950;51.230;4.012;2022-10-31T08:49:05;13.40;99.90
23544;DHT22;11950;51.230;4.012;2022-10-31T08:51:31;14.40;99.90
23544;DHT22;11950;51.230;4.012;2022-10-31T08:53:57;13.20;99.90
23544;DHT22;11950;51.230;4.012;2022-10-31T08:56:33;13.50;99.90
23544;DHT22;11950;51.230;4.012;2022-10-31T09:01:37;13.70;99.90
23544;DHT22;11950;51.230;4.012;2022-10-31T09:06:32;13.70;99.90
23544;DHT22;11950;51.230;4.012;2022-10-31T09:08:59;13.80;99.90
23544;DHT22;11950;51.230;4.012;2022-10-31T09:14:10;14.70;99.90
23544;DHT22;11950;51.230;4.012;2022-10-31T09:16:36;13.80;99.90
23544;DHT22;11950;51.230;4.012;2022-10-31T09:29:04;14.00;99.90
23544;DHT22;11950;51.230;4.012;2022-10-31T09:34:04;13.70;99.90
23544;DHT22;11950;51.230;4.012;2022-10-31T09:36:37;14.00;99.90
23544;DHT22;11950;51.230;4.012;2022-10-31T09:39:06;13.70;99.90
23544;DHT22;11950;51.230;4.012;2022-10-31T09:44:21;15.00;99.90
23544;DHT22;11950;51.230;4.012;2022-10-31T09:54:53;14.40;99.90
23544;DHT22;11950;51.230;4.012;2022-10-31T09:57:28;14.50;99.90
23544;DHT22;11950;51.230;4.012;2022-10-31T09:59:56;14.60;99.90
23544;DHT22;11950;51.230;4.012;2022-10-31T10:02:35;14.40;99.90
23544;DHT22;11950;51.230;4.012;2022-10-31T10:05:14;14.70;99.90
23544;DHT22;11950;51.230;4.012;2022-10-31T10:08:15;14.90;99.90
23544;DHT22;11950;51.230;4.012;2022-10-31T10:11:17;14.80;99.90
23544;DHT22;11950;51.230;4.012;2022-10-31T10:33:18;15.10;99.90
23544;DHT22;11950;51.230;4.012;2022-10-31T10:35:52;15.00;99.90
23544;DHT22;11950;51.230;4.012;2022-10-31T10:38:39;14.90;99.90
23544;DHT22;11950;51.230;4.012;2022-10-31T10:41:14;15.00;99.90
23544;DHT22;11950;51.230;4.012;2022-10-31T10:43:41;17.60;99.90
23544;DHT22;11950;51.230;4.012;2022-10-31T10:49:19;15.00;99.90
23544;DHT22;11950;51.230;4.012;2022-10-31T10:54:39;15.40;99.90
23544;DHT22;11950;51.230;4.012;2022-10-31T10:57:19;15.20;99.90
23544;DHT22;11950;51.230;4.012;2022-10-31T10:59:47;15.20;99.90
23544;DHT22;11950;51.230;4.012;2022-10-31T11:02:18;15.30;99.90
23544;DHT22;11950;51.230;4.012;2022-10-31T11:04:50;14.50;99.90
23544;DHT22;11950;51.230;4.012;2022-10-31T11:07:17;15.40;99.90
23544;DHT22;11950;51.230;4.012;2022-10-31T11:09:43;15.50;99.90
23544;DHT22;11950;51.230;4.012;2022-10-31T11:12:11;15.60;99.90
23544;DHT22;11950;51.230;4.012;2022-10-31T11:14:51;15.60;99.90
23544;DHT22;11950;51.230;4.012;2022-10-31T11:17:37;15.70;99.90
23544;DHT22;11950;51.230;4.012;2022-10-31T11:22:44;15.80;99.90
23544;DHT22;11950;51.230;4.012;2022-10-31T11:27:46;15.90;99.90
23544;DHT22;11950;51.230;4.012;2022-10-31T11:30:14;16.00;99.90
23544;DHT22;11950;51.230;4.012;2022-10-31T11:32:47;16.00;99.90
23544;DHT22;11950;51.230;4.012;2022-10-31T11:35:17;16.10;99.90
23544;DHT22;11950;51.230;4.012;2022-10-31T11:37:46;16.10;99.90
23544;DHT22;11950;51.230;4.012;2022-10-31T11:42:43;16.20;99.90
23544;DHT22;11950;51.230;4.012;2022-10-31T11:47:52;16.30;99.90
23544;DHT22;11950;51.230;4.012;2022-10-31T11:52:58;16.40;99.90
23544;DHT22;11950;51.230;4.012;2022-10-31T11:55:36;16.40;99.90
23544;DHT22;11950;51.230;4.012;2022-10-31T11:58:03;16.30;99.90
23544;DHT22;11950;51.230;4.012;2022-10-31T12:00:37;16.50;99.90
23544;DHT22;11950;51.230;4.012;2022-10-31T12:03:25;16.60;99.90
23544;DHT22;11950;51.230;4.012;2022-10-31T12:08:30;16.60;99.90
23544;DHT22;11950;51.230;4.012;2022-10-31T12:16:57;16.80;99.90
23544;DHT22;11950;51.230;4.012;2022-10-31T12:19:29;17.00;99.90
23544;DHT22;11950;51.230;4.012;2022-10-31T12:22:13;16.90;99.90
23544;DHT22;11950;51.230;4.012;2022-10-31T12:36:10;17.00;99.90
23544;DHT22;11950;51.230;4.012;2022-10-31T12:44:06;17.10;99.90
23544;DHT22;11950;51.230;4.012;2022-10-31T12:47:05;17.00;99.90
23544;DHT22;11950;51.230;4.012;2022-10-31T12:49:48;17.10;99.90
23544;DHT22;11950;51.230;4.012;2022-10-31T12:52:35;17.30;99.90
23544;DHT22;11950;51.230;4.012;2022-10-31T12:57:56;17.20;99.90
23544;DHT22;11950;51.230;4.012;2022-10-31T13:00:23;17.30;99.90
23544;DHT22;11950;51.230;4.012;2022-10-31T13:02:59;17.20;99.90
23544;DHT22;11950;51.230;4.012;2022-10-31T13:05:40;17.40;99.90
23544;DHT22;11950;51.230;4.012;2022-10-31T13:08:28;17.30;99.90
23544;DHT22;11950;51.230;4.012;2022-10-31T13:11:11;17.40;99.90
23544;DHT22;11950;51.230;4.012;2022-10-31T13:16:24;17.30;99.90
23544;DHT22;11950;51.230;4.012;2022-10-31T13:19:02;17.50;99.90
23544;DHT22;11950;51.230;4.012;2022-10-31T13:21:39;17.50;99.90
23544;DHT22;11950;51.230;4.012;2022-10-31T13:24:19;17.50;99.90
23544;DHT22;11950;51.230;4.012;2022-10-31T13:26:53;17.50;99.90
23544;DHT22;11950;51.230;4.012;2022-10-31T13:29:26;17.60;99.90
23544;DHT22;11950;51.230;4.012;2022-10-31T13:31:53;17.60;99.90
23544;DHT22;11950;51.230;4.012;2022-10-31T13:45:21;14.60;99.90
23544;DHT22;11950;51.230;4.012;2022-10-31T13:50:41;17.90;99.90
23544;DHT22;11950;51.230;4.012;2022-10-31T13:53:18;17.60;99.90
23544;DHT22;11950;51.230;4.012;2022-10-31T13:55:50;17.80;99.90
23544;DHT22;11950;51.230;4.012;2022-10-31T13:58:29;17.80;99.90
23544;DHT22;11950;51.230;4.012;2022-10-31T14:01:00;17.90;99.90
23544;DHT22;11950;51.230;4.012;2022-10-31T14:03:29;17.70;99.90
23544;DHT22;11950;51.230;4.012;2022-10-31T14:05:56;18.00;99.90
23544;DHT22;11950;51.230;4.012;2022-10-31T14:08:23;17.90;99.90
23544;DHT22;11950;51.230;4.012;2022-10-31T14:10:52;18.00;99.90
23544;DHT22;11950;51.230;4.012;2022-10-31T14:13:38;18.10;99.90
23544;DHT22;11950;51.230;4.012;2022-10-31T14:18:50;18.10;99.90
23544;DHT22;11950;51.230;4.012;2022-10-31T14:23:53;18.00;99.90
23544;DHT22;11950;51.230;4.012;2022-10-31T14:28:57;18.00;99.90
23544;DHT22;11950;51.230;4.012;2022-10-31T14:31:38;18.10;99.90
23544;DHT22;11950;51.230;4.012;2022-10-31T14:45:26;18.50;99.90
23544;DHT22;11950;51.230;4.012;2022-10-31T14:50:47;18.20;99.90
23544;DHT22;11950;51.230;4.012;2022-10-31T14:55:47;18.30;99.90
23544;DHT22;11950;51.230;4.012;2022-10-31T14:58:18;19.10;99.90
23544;DHT22;11950;51.230;4.012;2022-10-31T15:00:53;18.70;99.90
23544;DHT22;11950;51.230;4.012;2022-10-31T15:03:32;18.20;99.90
23544;DHT22;11950;51.230;4.012;2022-10-31T15:06:19;17.80;99.90
23544;DHT22;11950;51.230;4.012;2022-10-31T15:08:49;18.20;99.90
23544;DHT22;11950;51.230;4.012;2022-10-31T15:11:20;17.80;99.90
23544;DHT22;11950;51.230;4.012;2022-10-31T15:13:55;18.30;99.90
23544;DHT22;11950;51.230;4.012;2022-10-31T15:16:31;18.20;99.90
23544;DHT22;11950;51.230;4.012;2022-10-31T15:19:00;18.30;99.90
23544;DHT22;11950;51.230;4.012;2022-10-31T15:21:29;18.20;99.90
23544;DHT22;11950;51.230;4.012;2022-10-31T15:23:59;18.20;99.90
23544;DHT22;11950;51.230;4.012;2022-10-31T15:26:38;18.70;99.90
23544;DHT22;11950;51.230;4.012;2022-10-31T15:29:13;18.20;99.90
23544;DHT22;11950;51.230;4.012;2022-10-31T15:31:57;18.20;99.90
23544;DHT22;11950;51.230;4.012;2022-10-31T15:34:40;18.30;99.90
23544;DHT22;11950;51.230;4.012;2022-10-31T15:37:18;18.00;99.90
23544;DHT22;11950;51.230;4.012;2022-10-31T15:39:46;18.20;99.90
23544;DHT22;11950;51.230;4.012;2022-10-31T15:42:39;17.50;99.90
23544;DHT22;11950;51.230;4.012;2022-10-31T15:47:37;18.20;99.90
23544;DHT22;11950;51.230;4.012;2022-10-31T15:50:18;18.60;99.90
23544;DHT22;11950;51.230;4.012;2022-10-31T15:52:47;18.30;99.90
23544;DHT22;11950;51.230;4.012;2022-10-31T15:55:29;18.30;99.90
23544;DHT22;11950;51.230;4.012;2022-10-31T15:57:58;17.90;99.90
23544;DHT22;11950;51.230;4.012;2022-10-31T16:00:35;18.10;99.90
23544;DHT22;11950;51.230;4.012;2022-10-31T16:05:44;18.20;99.90
23544;DHT22;11950;51.230;4.012;2022-10-31T16:11:17;18.10;99.90
23544;DHT22;11950;51.230;4.012;2022-10-31T16:13:58;18.10;99.90
23544;DHT22;11950;51.230;4.012;2022-10-31T16:16:25;18.10;99.90
23544;DHT22;11950;51.230;4.012;2022-10-31T16:18:53;18.10;99.90
23544;DHT22;11950;51.230;4.012;2022-10-31T16:21:34;18.00;99.90
23544;DHT22;11950;51.230;4.012;2022-10-31T16:24:10;18.10;99.90
23544;DHT22;11950;51.230;4.012;2022-10-31T16:26:38;18.20;99.90
23544;DHT22;11950;51.230;4.012;2022-10-31T16:29:23;18.00;99.90
23544;DHT22;11950;51.230;4.012;2022-10-31T16:31:50;18.00;99.90
23544;DHT22;11950;51.230;4.012;2022-10-31T16:34:23;18.10;99.90
23544;DHT22;11950;51.230;4.012;2022-10-31T16:36:50;18.10;99.90
23544;DHT22;11950;51.230;4.012;2022-10-31T16:39:16;18.10;99.90
23544;DHT22;11950;51.230;4.012;2022-10-31T16:41:48;18.20;99.90
23544;DHT22;11950;51.230;4.012;2022-10-31T16:44:23;18.00;99.90
23544;DHT22;11950;51.230;4.012;2022-10-31T16:47:13;17.90;99.90
23544;DHT22;11950;51.230;4.012;2022-10-31T16:49:40;17.80;99.90
23544;DHT22;11950;51.230;4.012;2022-10-31T16:52:07;17.80;99.90
23544;DHT22;11950;51.230;4.012;2022-10-31T16:54:33;17.80;99.90
23544;DHT22;11950;51.230;4.012;2022-10-31T16:57:00;17.80;99.90
23544;DHT22;11950;51.230;4.012;2022-10-31T16:59:29;17.70;99.90
23544;DHT22;11950;51.230;4.012;2022-10-31T17:01:56;17.80;99.90
23544;DHT22;11950;51.230;4.012;2022-10-31T17:04:22;17.80;99.90
23544;DHT22;11950;51.230;4.012;2022-10-31T17:06:48;17.90;99.90
23544;DHT22;11950;51.230;4.012;2022-10-31T17:09:14;17.80;99.90
23544;DHT22;11950;51.230;4.012;2022-10-31T17:11:45;18.10;99.90
23544;DHT22;11950;51.230;4.012;2022-10-31T17:14:12;17.70;99.90
23544;DHT22;11950;51.230;4.012;2022-10-31T17:16:39;17.80;99.90
23544;DHT22;11950;51.230;4.012;2022-10-31T17:19:05;17.60;99.90
23544;DHT22;11950;51.230;4.012;2022-10-31T17:21:33;17.80;99.90
23544;DHT22;11950;51.230;4.012;2022-10-31T17:24:00;17.80;99.90
23544;DHT22;11950;51.230;4.012;2022-10-31T17:26:27;17.70;99.90
23544;DHT22;11950;51.230;4.012;2022-10-31T17:28:53;17.80;99.90
23544;DHT22;11950;51.230;4.012;2022-10-31T17:31:26;17.90;99.90
23544;DHT22;11950;51.230;4.012;2022-10-31T17:33:57;17.70;99.90
23544;DHT22;11950;51.230;4.012;2022-10-31T17:36:23;17.70;99.90
23544;DHT22;11950;51.230;4.012;2022-10-31T17:38:49;17.70;99.90
23544;DHT22;11950;51.230;4.012;2022-10-31T17:41:16;17.70;99.90
23544;DHT22;11950;51.230;4.012;2022-10-31T17:43:42;17.60;99.90
23544;DHT22;11950;51.230;4.012;2022-10-31T17:46:08;17.50;99.90
23544;DHT22;11950;51.230;4.012;2022-10-31T17:48:36;17.50;99.90
23544;DHT22;11950;51.230;4.012;2022-10-31T17:51:04;17.60;99.90
23544;DHT22;11950;51.230;4.012;2022-10-31T17:53:31;17.60;99.90
23544;DHT22;11950;51.230;4.012;2022-10-31T17:56:06;17.50;99.90
23544;DHT22;11950;51.230;4.012;2022-10-31T17:58:34;17.40;99.90
23544;DHT22;11950;51.230;4.012;2022-10-31T18:01:07;17.40;99.90
23544;DHT22;11950;51.230;4.012;2022-10-31T18:03:34;17.50;99.90
23544;DHT22;11950;51.230;4.012;2022-10-31T18:06:00;17.50;99.90
23544;DHT22;11950;51.230;4.012;2022-10-31T18:08:33;17.50;99.90
23544;DHT22;11950;51.230;4.012;2022-10-31T18:11:11;17.40;99.90
23544;DHT22;11950;51.230;4.012;2022-10-31T18:13:39;17.40;99.90
23544;DHT22;11950;51.230;4.012;2022-10-31T18:16:10;17.40;99.90
23544;DHT22;11950;51.230;4.012;2022-10-31T18:18:37;17.40;99.90
23544;DHT22;11950;51.230;4.012;2022-10-31T18:21:04;17.50;99.90
23544;DHT22;11950;51.230;4.012;2022-10-31T18:23:30;17.30;99.90
23544;DHT22;11950;51.230;4.012;2022-10-31T18:25:56;17.20;99.90
23544;DHT22;11950;51.230;4.012;2022-10-31T18:28:23;17.30;99.90
23544;DHT22;11950;51.230;4.012;2022-10-31T18:30:49;17.20;99.90
23544;DHT22;11950;51.230;4.012;2022-10-31T18:33:15;17.30;99.90
23544;DHT22;11950;51.230;4.012;2022-10-31T18:35:44;17.20;99.90
23544;DHT22;11950;51.230;4.012;2022-10-31T18:38:11;17.10;99.90
23544;DHT22;11950;51.230;4.012;2022-10-31T18:40:38;17.20;99.90
23544;DHT22;11950;51.230;4.012;2022-10-31T18:43:05;17.10;99.90
23544;DHT22;11950;51.230;4.012;2022-10-31T18:45:31;17.20;99.90
23544;DHT22;11950;51.230;4.012;2022-10-31T18:47:57;17.00;99.90
23544;DHT22;11950;51.230;4.012;2022-10-31T18:50:23;17.00;99.90
23544;DHT22;11950;51.230;4.012;2022-10-31T18:52:50;17.00;99.90
23544;DHT22;11950;51.230;4.012;2022-10-31T18:55:16;17.00;99.90
23544;DHT22;11950;51.230;4.012;2022-10-31T18:57:42;16.80;99.90